Latest Weather Observations for Ivanhoe Airport

IDN60801

Issued at 8:23 am EDT Tuesday 27 October 2020 (issued every 10 minutes, with the page automatically refreshed every 10 minutes)

About weather observations | Map of weather stations | Latest weather observations for NSW | Other Formats
Station Details ID: 049000 Name: IVANHOE AERODROME AWS Lat: -32.88 Lon: 144.31 Height: 100.0 m
Data from the previous 72 hours. | See also: Recent months at Ivanhoe Airport
Date/Time
EDT
Temp
°C
App
Temp
°C
Dew
Point
°C
Rel
Hum
%
Delta-T
°C
Wind Press
QNH
hPa
Press
MSL
hPa
Rain since
9am
mm
Dir  Spd
km/h
Gust
km/h
Spd
kts
Gust
kts
27/08:00am 13.1 8.9 7.5 69 2.7 ESE 19 32 10 17 1017.6 1017.3 0.2
27/07:30am 11.2 8.5 7.5 78 1.8 SE 11 17 6 9 1017.4 1017.1 0.2
27/07:00am 10.5 7.5 7.6 82 1.4 SE 13 17 7 9 1017.1 1016.8 0.2
27/06:30am 10.2 7.2 7.6 84 1.3 SE 13 17 7 9 1016.6 1016.3 0.2
27/06:00am 10.2 7.2 7.8 85 1.2 SE 13 19 7 10 1016.2 1016.0 0.2
27/05:30am 10.6 7.7 8.2 85 1.2 SE 13 19 7 10 1016.0 1015.8 0.2
27/05:00am 10.5 7.7 8.4 87 1.0 SE 13 17 7 9 1015.8 1015.6 0.2
27/04:30am 10.6 7.9 9.0 90 0.8 SE 13 15 7 8 1015.7 1015.5 0.2
27/04:00am 10.6 8.3 9.0 90 0.8 SSE 11 13 6 7 1015.8 1015.6 0.2
27/03:30am 10.9 8.7 9.2 89 0.9 SSE 11 15 6 8 1015.9 1015.7 0.2
27/03:00am 11.0 8.8 9.3 89 0.9 SE 11 15 6 8 1015.9 1015.7 0.2
27/02:30am 11.3 8.7 9.4 88 1.0 SE 13 15 7 8 1015.9 1015.7 0.2
27/02:00am 11.4 9.2 9.5 88 1.0 SE 11 15 6 8 1016.2 1016.0 0.2
27/01:30am 11.7 9.6 9.6 87 1.1 SE 11 13 6 7 1016.5 1016.2 0.2
27/01:00am 12.0 9.5 9.7 86 1.2 SE 13 17 7 9 1016.8 1016.5 0.2
27/12:30am 12.4 9.6 10.0 85 1.2 SE 15 20 8 11 1017.0 1016.7 0.2
27/12:00am 12.4 9.5 9.8 84 1.3 SE 15 20 8 11 1017.1 1016.8 0.2
 
Date/Time
EDT
Temp
°C
App
Temp
°C
Dew
Point
°C
Rel
Hum
%
Delta-T
°C
Wind Press
QNH
hPa
Press
MSL
hPa
Rain since
9am
mm
Dir  Spd
km/h
Gust
km/h
Spd
kts
Gust
kts
26/11:30pm 12.6 10.1 9.6 82 1.5 SE 13 19 7 10 1017.3 1017.0 0.2
26/11:00pm 12.6 8.9 9.4 81 1.6 SE 19 26 10 14 1017.4 1017.1 0.2
26/10:30pm 13.0 9.3 9.3 78 1.9 SE 19 28 10 15 1017.5 1017.2 0.2
26/10:00pm 13.3 9.0 9.4 77 2.0 SE 22 33 12 18 1017.4 1017.1 0.2
26/09:30pm 13.6 9.0 9.5 76 2.1 SE 24 35 13 19 1017.3 1017.0 0.2
26/09:00pm 14.0 9.2 8.8 71 2.6 SE 24 33 13 18 1017.1 1016.8 0.2
26/08:30pm 14.0 8.8 9.0 72 2.5 SE 26 35 14 19 1016.9 1016.6 0.2
26/08:00pm 14.7 9.5 8.9 68 3.0 SE 26 39 14 21 1016.5 1016.2 0.2
26/07:30pm 14.9 9.9 9.5 70 2.8 SE 26 39 14 21 1016.2 1016.0 0.2
26/07:00pm 15.0 10.0 9.6 70 2.8 ESE 26 35 14 19 1016.0 1015.8 0.2
26/06:30pm 15.0 9.7 9.8 71 2.7 SE 28 39 15 21 1015.7 1015.5 0.2
26/06:00pm 15.6 9.7 10.4 71 2.8 SE 32 41 17 22 1015.5 1015.3 0.2
26/05:30pm 15.7 9.9 9.4 66 3.3 SE 30 43 16 23 1015.4 1015.2 0.2
26/05:00pm 16.9 11.4 9.3 61 4.0 ESE 28 37 15 20 1015.2 1015.0 0.2
26/04:30pm 16.7 11.3 9.4 62 3.8 SE 28 41 15 22 1015.0 1014.8 0.2
26/04:00pm 17.0 11.6 9.4 61 4.0 SE 28 41 15 22 1015.0 1014.8 0.2
26/03:35pm 17.7 12.5 10.3 62 4.0 ESE 28 46 15 25 1015.2 1015.0 0.2
26/03:30pm 17.7 11.7 10.1 61 4.1 SE 32 46 17 25 1015.3 1015.1 0.2
26/03:00pm 17.8 12.8 9.4 58 4.4 ESE 26 37 14 20 1015.3 1015.1 0.2
26/02:30pm 18.0 12.6 9.4 57 4.5 ESE 28 37 15 20 1015.3 1015.1 0.2
26/02:00pm 18.9 13.7 10.2 57 4.7 E 28 39 15 21 1015.4 1015.2 0.2
26/01:30pm 18.7 13.2 10.5 59 4.4 ESE 30 39 16 21 1015.5 1015.3 0.0
26/01:00pm 17.4 12.9 10.1 62 3.9 E 24 33 13 18 1015.8 1015.6 0.0
26/12:30pm 17.3 11.7 10.2 63 3.8 E 30 39 16 21 1015.9 1015.7 0.0
26/12:00pm 16.5 11.1 10.8 69 3.1 ESE 30 41 16 22 1016.3 1016.1 0.0
26/11:30am 15.1 9.9 11.5 79 1.9 E 30 39 16 21 1016.5 1016.2 0.0
26/11:00am 13.9 11.2 13.0 94 0.5 ESE 19 30 10 16 1016.7 1016.4 0.0
26/10:30am 15.3 10.9 11.7 79 2.0 ESE 26 33 14 18 1016.8 1016.5 0.0
26/10:00am 16.2 12.5 11.4 73 2.6 ESE 22 32 12 17 1016.6 1016.3 0.0
26/09:30am 15.7 12.4 11.5 76 2.3 SE 20 26 11 14 1016.3 1016.1 0.0
26/09:00am 14.1 10.7 11.4 84 1.4 ESE 20 28 11 15 1016.3 1016.1 0.0
26/08:30am 13.5 10.1 10.5 82 1.6 ESE 19 30 10 16 1016.0 1015.8 0.0
26/08:00am 12.6 9.0 10.7 88 1.0 ESE 20 26 11 14 1015.7 1015.5 0.0
26/07:30am 12.1 9.5 10.7 91 0.7 SE 15 20 8 11 1015.4 1015.2 0.0
26/07:00am 10.8 9.2 8.7 87 1.0 SSW 7 11 4 6 1015.0 1014.8 0.0
26/06:30am 8.8 6.2 6.3 84 1.2 SW 9 13 5 7 1014.6 1014.4 0.0
26/06:00am 8.8 5.4 5.7 81 1.4 SW 13 15 7 8 1014.4 1014.2 0.0
26/05:30am 8.7 5.1 5.1 78 1.6 SW 13 17 7 9 1014.2 1014.0 0.0
26/05:00am 8.8 5.2 4.8 76 1.8 SW 13 17 7 9 1014.2 1014.0 0.0
26/04:30am 8.7 4.9 3.9 72 2.1 SW 13 15 7 8 1014.2 1014.0 0.0
26/04:00am 9.1 4.5 3.5 68 2.4 SW 17 20 9 11 1014.1 1013.9 0.0
26/03:30am 9.7 5.0 3.0 63 2.9 SW 17 22 9 12 1014.3 1014.1 0.0
26/03:00am 10.1 5.3 2.5 59 3.3 SW 17 22 9 12 1014.5 1014.3 0.0
26/02:30am 10.3 5.1 2.2 57 3.5 SW 19 24 10 13 1014.7 1014.5 0.0
26/02:00am 10.5 5.2 1.9 55 3.6 SW 19 28 10 15 1015.0 1014.8 0.0
26/01:30am 10.7 5.3 1.5 53 3.9 SW 19 24 10 13 1015.4 1015.2 0.0
26/01:00am 11.0 6.0 1.5 52 4.0 SW 17 22 9 12 1015.8 1015.6 0.0
26/12:30am 10.9 6.3 1.7 53 3.9 SW 15 20 8 11 1016.0 1015.8 0.0
26/12:00am 11.3 6.7 1.5 51 4.1 SW 15 20 8 11 1016.2 1016.0 0.0
 
Date/Time
EDT
Temp
°C
App
Temp
°C
Dew
Point
°C
Rel
Hum
%
Delta-T
°C
Wind Press
QNH
hPa
Press
MSL
hPa
Rain since
9am
mm
Dir  Spd
km/h
Gust
km/h
Spd
kts
Gust
kts
25/11:30pm 11.7 6.7 1.6 50 4.3 SW 17 22 9 12 1016.2 1016.0 0.0
25/11:00pm 12.2 7.2 1.5 48 4.6 SW 17 20 9 11 1016.2 1016.0 0.0
25/10:30pm 12.7 7.8 1.7 47 4.7 SW 17 22 9 12 1016.5 1016.2 0.0
25/10:00pm 13.3 8.3 1.3 44 5.1 SW 17 24 9 13 1016.3 1016.1 0.0
25/09:30pm 13.6 9.0 1.3 43 5.3 SW 15 19 8 10 1016.1 1015.9 0.0
25/09:00pm 14.2 9.6 1.5 42 5.5 SW 15 20 8 11 1015.9 1015.7 0.0
25/08:30pm 14.8 9.8 1.3 40 5.9 SW 17 20 9 11 1015.8 1015.6 0.0
25/08:00pm 15.4 10.4 1.2 38 6.2 SW 17 30 9 16 1015.6 1015.4 0.0
25/07:30pm 16.2 10.1 0.3 34 6.9 SSW 22 32 12 17 1015.3 1015.1 0.0
25/07:00pm 17.0 10.6 1.0 34 7.1 SSW 24 39 13 21 1015.0 1014.8 0.0
25/06:30pm 17.6 11.7 1.6 34 7.2 SSW 22 35 12 19 1014.7 1014.5 0.0
25/06:00pm 17.6 10.9 1.2 33 7.3 SSW 26 37 14 20 1014.5 1014.3 0.0
25/05:30pm 18.3 12.0 1.8 33 7.5 SW 24 33 13 18 1014.5 1014.3 0.0
25/05:00pm 18.0 11.3 1.5 33 7.4 SSW 26 35 14 19 1014.5 1014.3 0.0
25/04:30pm 18.5 11.8 1.5 32 7.7 SSW 26 39 14 21 1014.5 1014.3 0.0
25/04:26pm 17.8 10.6 0.9 32 7.5 SSW 28 46 15 25 1014.4 1014.2 0.0
25/04:00pm 17.9 10.5 -0.4 29 7.9 SSW 28 43 15 23 1014.5 1014.3 0.0
25/03:30pm 18.0 10.5 1.1 32 7.5 SSW 30 43 16 23 1014.8 1014.6 0.0
25/03:00pm 17.5 10.7 0.6 32 7.4 SW 26 39 14 21 1015.0 1014.8 0.0
25/02:30pm 17.6 11.2 1.2 33 7.3 SSW 24 39 13 21 1015.2 1015.0 0.0
25/02:00pm 17.0 9.5 1.0 34 7.1 SSW 30 43 16 23 1015.5 1015.3 0.0
25/01:30pm 17.0 10.9 2.6 38 6.6 SSW 24 39 13 21 1015.6 1015.4 0.0
25/01:03pm 16.4 9.4 2.1 38 6.4 SSW 28 46 15 25 1015.7 1015.5 0.0
25/01:00pm 16.4 10.0 3.1 41 6.1 SSW 26 41 14 22 1015.8 1015.6 0.0
25/12:30pm 16.4 10.0 3.1 41 6.1 SSW 26 41 14 22 1016.1 1015.9 0.0
25/12:03pm 15.2 8.4 3.0 44 5.5 S 28 46 15 25 1016.6 1016.3 0.0
25/12:00pm 15.9 9.8 4.6 47 5.3 S 26 37 14 20 1016.6 1016.3 0.0
25/11:30am 14.7 8.4 3.8 48 5.0 S 26 39 14 21 1016.9 1016.6 0.0
25/11:00am 14.4 7.8 4.1 50 4.7 S 28 44 15 24 1017.0 1016.7 0.0
25/10:30am 13.3 6.6 3.9 53 4.3 S 28 44 15 24 1017.0 1016.7 0.0
25/10:06am 12.6 6.0 4.1 56 3.9 S 28 48 15 26 1017.2 1016.9 0.0
25/10:00am 12.8 6.4 5.0 59 3.6 S 28 43 15 23 1017.2 1016.9 0.0
25/09:30am 12.0 5.1 4.7 61 3.3 S 30 43 16 23 1017.2 1016.9 0.0
25/09:00am 11.2 4.7 4.7 64 3.0 S 28 41 15 22 1017.0 1016.7 0.0
25/08:30am 10.1 3.9 4.5 68 2.5 SSW 26 37 14 20 1016.8 1016.5 0.0
25/08:00am 9.2 3.8 4.4 72 2.1 SSW 22 32 12 17 1016.3 1016.1 0.0
25/07:30am 7.7 3.1 3.9 77 1.6 SSW 17 24 9 13 1015.9 1015.7 0.0
25/07:00am 7.2 2.6 3.6 78 1.5 SSW 17 24 9 13 1015.4 1015.2 0.0
25/06:30am 7.4 2.7 3.3 75 1.7 SSW 17 22 9 12 1014.9 1014.7 0.0
25/06:00am 7.9 2.8 3.2 72 2.0 SSW 19 26 10 14 1014.5 1014.3 0.0
25/05:30am 8.2 3.5 3.3 71 2.1 SSW 17 24 9 13 1014.2 1014.0 0.0
25/05:00am 8.5 3.8 3.4 70 2.2 SSW 17 26 9 14 1013.8 1013.6 0.0
25/04:30am 8.7 3.6 3.3 69 2.3 SSW 19 26 10 14 1013.6 1013.4 0.0
25/04:00am 9.1 3.9 3.3 67 2.5 SSW 20 30 11 16 1013.4 1013.2 0.0
25/03:30am 9.6 4.4 3.6 66 2.6 SSW 20 30 11 16 1013.4 1013.2 0.0
25/03:00am 10.0 4.4 3.5 64 2.8 SSW 22 37 12 20 1013.2 1013.0 0.0
25/02:30am 10.5 5.0 3.8 63 3.0 SSW 22 32 12 17 1013.3 1013.1 0.0
25/02:00am 11.0 5.1 4.0 62 3.1 SSW 24 32 13 17 1013.3 1013.1 0.0
25/01:30am 11.6 6.2 4.6 62 3.2 SSW 22 35 12 19 1013.3 1013.1 0.0
25/01:00am 12.3 6.2 5.0 61 3.4 SSW 26 41 14 22 1012.9 1012.7 0.0
25/12:30am 12.9 6.9 5.3 60 3.6 SSW 26 48 14 26 1012.6 1012.3 0.0
25/12:24am 13.3 6.9 5.2 58 3.8 SSW 28 48 15 26 1012.4 1012.1 0.0
25/12:00am 13.8 8.4 6.2 60 3.7 SSW 24 39 13 21 1012.1 1011.8 0.0
 
Date/Time
EDT
Temp
°C
App
Temp
°C
Dew
Point
°C
Rel
Hum
%
Delta-T
°C
Wind Press
QNH
hPa
Press
MSL
hPa
Rain since
9am
mm
Dir  Spd
km/h
Gust
km/h
Spd
kts
Gust
kts
24/11:30pm 14.5 9.4 7.5 63 3.5 SSW 24 41 13 22 1011.8 1011.5 0.0
24/11:00pm 14.2 10.3 8.6 69 2.8 SSW 19 26 10 14 1011.8 1011.5 0.0
24/10:30pm 14.1 11.4 8.9 71 2.6 SW 13 20 7 11 1011.4 1011.1 0.0
24/10:00pm 14.4 11.5 9.6 73 2.5 SSW 15 20 8 11 1011.3 1011.0 0.0
24/09:30pm 14.2 12.7 10.4 78 2.0 SW 9 13 5 7 1011.0 1010.7 0.0
24/09:00pm 14.8 12.8 10.0 73 2.5 S 11 15 6 8 1010.4 1010.1 0.0
24/08:30pm 15.0 12.9 9.8 71 2.7 S 11 15 6 8 1009.9 1009.6 0.0
24/08:00pm 15.6 12.3 9.5 67 3.2 SSW 17 26 9 14 1009.4 1009.1 0.0
24/07:30pm 15.9 11.5 9.1 64 3.5 SSW 22 33 12 18 1008.9 1008.6 0.0
24/07:00pm 16.3 10.8 9.3 63 3.7 SSW 28 44 15 24 1008.3 1008.0 0.0
24/06:30pm 15.5 10.1 10.9 74 2.5 SSW 30 48 16 26 1007.8 1007.5 0.0
24/06:01pm 15.5 9.2 11.1 75 2.4 SSW 35 54 19 29 1007.1 1006.8 0.0
24/06:00pm 15.4 8.6 10.8 74 2.5 SSW 37 54 20 29 1007.1 1006.8 0.0
24/05:47pm 15.6 9.0 11.2 75 2.4 SSW 37 57 20 31 1006.9 1006.6 0.0
24/05:30pm 15.7 9.6 11.7 77 2.2 SW 35 52 19 28 1006.5 1006.2 0.0
24/05:09pm 15.8 10.2 12.2 79 2.0 SSW 33 52 18 28 1006.2 1005.9 0.0
24/05:00pm 15.8 9.1 12.2 79 2.0 SSW 39 54 21 29 1006.2 1005.9 0.0
24/04:30pm 16.0 10.6 12.7 81 1.8 SW 33 57 18 31 1005.8 1005.6 0.0
24/04:14pm 15.8 9.7 12.9 83 1.6 SW 37 56 20 30 1005.6 1005.4 0.0
24/04:00pm 16.1 10.4 13.0 82 1.7 SW 35 52 19 28 1005.4 1005.2 0.0
24/03:30pm 16.8 11.6 13.3 80 2.0 SW 33 52 18 28 1005.2 1005.0 0.0
24/03:00pm 17.7 11.8 13.6 77 2.3 SW 37 57 20 31 1004.8 1004.6 0.0
24/02:30pm 20.5 15.3 15.5 73 3.0 SW 37 56 20 30 1004.0 1003.7 0.0
24/02:24pm 20.0 15.1 15.2 74 2.8 SW 35 56 19 30 1004.0 1003.7 0.0
24/02:00pm 20.3 16.9 15.9 76 2.6 SW 28 43 15 23 1003.6 1003.3 0.0
24/01:31pm 21.0 17.3 15.1 69 3.5 WSW 28 52 15 28 1003.4 1003.1 0.0
24/01:30pm 21.4 18.5 15.0 67 3.8 WSW 24 52 13 28 1003.4 1003.1 0.0
24/01:00pm 23.6 21.7 15.1 59 5.1 SSW 19 26 10 14 1003.2 1002.9 0.0
24/12:30pm 21.9 21.4 17.7 77 2.6 S 17 28 9 15 1003.5 1003.2 0.0
24/12:00pm 23.4 24.0 16.7 66 4.1 S 9 17 5 9 1003.5 1003.2 0.0
24/11:30am 23.3 23.3 17.3 69 3.7 SSW 13 20 7 11 1003.6 1003.3 0.0
24/11:00am 22.7 22.7 17.2 71 3.4 S 13 19 7 10 1003.8 1003.5 0.0
24/10:30am 22.2 23.3 17.1 73 3.1 SW 7 13 4 7 1004.0 1003.7 0.0
24/10:00am 21.4 21.9 17.4 78 2.5 S 11 15 6 8 1003.9 1003.6 0.0
24/09:30am 20.9 21.9 16.9 78 2.4 SW 7 13 4 7 1003.8 1003.5 0.0
24/09:00am 20.3 21.3 16.9 81 2.1 SW 7 13 4 7 1003.3 1003.0 12.4
24/08:30am 20.0 19.9 17.0 83 1.8 SW 13 19 7 10 1003.4 1003.1 12.4

Other formats

Comma delimited format used in spreadsheet applications
http://www.bom.gov.au/fwo/IDN60801/IDN60801.95697.axf

JavaScript Object Notation format (JSON) in row-major order
http://www.bom.gov.au/fwo/IDN60801/IDN60801.95697.json

Data quality

Most of these data are generated automatically and are frequently updated. Quality checks on data are not normally performed. It is possible for incorrect values to appear. Refer to information at About Latest Weather Observations and please check the disclaimer before using these data.